Jeunes Ailes

Bienvenue sur le forum Jeunes Ailes !

Afin de profiter pleinement de tout ce que vous offre notre forum, merci de vous identifier si vous êtes déjà membre ou de rejoindre notre communauté si vous ne l'êtes pas encore.

Bonne visite et à bientôt.

L'équipe Jeunes Ailes

Arrivée ventée à Aubenas (LFHO) en Cirrus SR20

vbazillio
vbazillio
Fanatique

Masculin Nombre de messages : 526
Age : 51
Localisation : Paris
Date d'inscription : 22/06/2010

Arrivée ventée à Aubenas (LFHO) en Cirrus SR20 Empty Arrivée ventée à Aubenas (LFHO) en Cirrus SR20

Message  vbazillio le Jeu 18 Aoû 2016 - 6:13


https://www.youtube.com/watch?v=sE0Dik1VPD8

C'était la semaine dernière à l'occasion d'un aller-retour à Aubenas (LFHO) en Ardèche. Il y avait un peu de vent :

LFMO 100500Z 1006/1106 34020G30KT CAVOK BECMG 1006/1008
35025G35KT TEMPO 1008/1015 35030G45KT=
LFMV 100200Z 1003/1103 35020G30KT CAVOK TEMPO 1003/1021 35025G47KT=

L'EFIS affichait une trentaine de noeuds à la verticale, puis une vingtaine de noeuds, heureusement de face, en finale. Une fois au sol, la manche à air est souvent à l'horizontale.

Arrivée ventée à Aubenas (LFHO) en Cirrus SR20 28820293721_881e8bc187_b_d
Pour filmer à l'intérieur, j'ai placé une GoPro HD2 à la place du passager.

Arrivée ventée à Aubenas (LFHO) en Cirrus SR20 28791090582_5ed9034b2b_b_d
La tête du pilotaillon qui se rappelle le passage à la verticale il y a quelques instants et surtout la tête de la manche à air.
Même si c'est dans l'axe, ça va être sport ;-)
Yoyo
Yoyo
Team Jeunes Ailes
Team Jeunes Ailes

Masculin Nombre de messages : 1959
Age : 39
Localisation : Lyon Bron, St Cyr l'Ecole
Date d'inscription : 10/03/2008

Arrivée ventée à Aubenas (LFHO) en Cirrus SR20 Empty Re: Arrivée ventée à Aubenas (LFHO) en Cirrus SR20

Message  Yoyo le Jeu 18 Aoû 2016 - 9:23

Arrivée ventée à Aubenas (LFHO) en Cirrus SR20 42

L'arrivée semble tabasser "à donf", mais paradoxalement je n'ai pas l'impression que l'atterrissage était si sportif que cela, me trompe-je ?

Arrivée ventée à Aubenas (LFHO) en Cirrus SR20 48

vbazillio
vbazillio
Fanatique

Masculin Nombre de messages : 526
Age : 51
Localisation : Paris
Date d'inscription : 22/06/2010

Arrivée ventée à Aubenas (LFHO) en Cirrus SR20 Empty Re: Arrivée ventée à Aubenas (LFHO) en Cirrus SR20

Message  vbazillio le Jeu 18 Aoû 2016 - 11:27

Tu ne te trompes pas. Ça ne turbulait pas trop en final surtout lorsqu'on compare avec la descente. Malgré les GUSTings bien sensibles en regardant la manche, une fois au sol... C'est surtout que le vent était dans l'axe. Elles sont bien foutues ces pistes :-)


    © 2004-2018 Jeunes Ailes ® - Tous droits réservés | Powered by Invision © | Designed by Invision & Jeunes Ailes | Statistiques | Team JA | Contact
    La date/heure actuelle est Jeu 21 Nov 2019 - 5:32